sensor_id;sensor_type;location;lat;lon;timestamp;P1;durP1;ratioP1;P2;durP2;ratioP2
77586;SDS011;66744;49.716;17.158;2023-02-28T00:02:49;13.38;;;6.85;;
77586;SDS011;66744;49.716;17.158;2023-02-28T00:05:50;14.57;;;7.85;;
77586;SDS011;66744;49.716;17.158;2023-02-28T00:08:52;15.98;;;7.07;;
77586;SDS011;66744;49.716;17.158;2023-02-28T00:11:53;13.05;;;7.15;;
77586;SDS011;66744;49.716;17.158;2023-02-28T00:14:54;25.55;;;12.32;;
77586;SDS011;66744;49.716;17.158;2023-02-28T00:17:55;21.70;;;9.85;;
77586;SDS011;66744;49.716;17.158;2023-02-28T00:20:57;15.18;;;8.55;;
77586;SDS011;66744;49.716;17.158;2023-02-28T00:23:59;14.73;;;7.47;;
77586;SDS011;66744;49.716;17.158;2023-02-28T00:27:01;17.52;;;8.70;;
77586;SDS011;66744;49.716;17.158;2023-02-28T00:30:03;17.48;;;9.15;;
77586;SDS011;66744;49.716;17.158;2023-02-28T00:33:06;17.63;;;8.18;;
77586;SDS011;66744;49.716;17.158;2023-02-28T00:36:08;16.65;;;8.88;;
77586;SDS011;66744;49.716;17.158;2023-02-28T00:39:11;16.67;;;8.85;;
77586;SDS011;66744;49.716;17.158;2023-02-28T00:42:12;13.88;;;7.50;;
77586;SDS011;66744;49.716;17.158;2023-02-28T00:45:14;15.60;;;7.30;;
77586;SDS011;66744;49.716;17.158;2023-02-28T00:48:15;17.92;;;8.38;;
77586;SDS011;66744;49.716;17.158;2023-02-28T00:51:17;21.50;;;10.07;;
77586;SDS011;66744;49.716;17.158;2023-02-28T00:57:21;21.00;;;7.88;;
77586;SDS011;66744;49.716;17.158;2023-02-28T01:00:23;18.15;;;9.38;;
77586;SDS011;66744;49.716;17.158;2023-02-28T01:03:24;14.68;;;7.43;;
77586;SDS011;66744;49.716;17.158;2023-02-28T01:06:26;15.35;;;8.38;;
77586;SDS011;66744;49.716;17.158;2023-02-28T01:09:27;15.30;;;8.30;;
77586;SDS011;66744;49.716;17.158;2023-02-28T01:12:29;16.58;;;7.50;;
77586;SDS011;66744;49.716;17.158;2023-02-28T01:15:30;16.67;;;7.60;;
77586;SDS011;66744;49.716;17.158;2023-02-28T01:18:32;15.35;;;8.10;;
77586;SDS011;66744;49.716;17.158;2023-02-28T01:21:34;18.27;;;8.85;;
77586;SDS011;66744;49.716;17.158;2023-02-28T01:24:36;17.40;;;7.85;;
77586;SDS011;66744;49.716;17.158;2023-02-28T01:27:38;14.70;;;7.97;;
77586;SDS011;66744;49.716;17.158;2023-02-28T01:30:40;14.15;;;7.45;;
77586;SDS011;66744;49.716;17.158;2023-02-28T01:33:41;16.83;;;8.38;;
77586;SDS011;66744;49.716;17.158;2023-02-28T01:39:45;19.50;;;8.07;;
77586;SDS011;66744;49.716;17.158;2023-02-28T01:42:46;13.18;;;7.60;;
77586;SDS011;66744;49.716;17.158;2023-02-28T01:45:50;16.40;;;7.50;;
77586;SDS011;66744;49.716;17.158;2023-02-28T01:49:03;16.05;;;8.25;;
77586;SDS011;66744;49.716;17.158;2023-02-28T01:52:08;17.50;;;8.07;;
77586;SDS011;66744;49.716;17.158;2023-02-28T01:55:16;16.42;;;7.65;;
77586;SDS011;66744;49.716;17.158;2023-02-28T01:58:20;15.63;;;8.55;;
77586;SDS011;66744;49.716;17.158;2023-02-28T02:01:22;18.50;;;8.30;;
77586;SDS011;66744;49.716;17.158;2023-02-28T02:04:31;15.35;;;7.30;;
77586;SDS011;66744;49.716;17.158;2023-02-28T02:07:38;12.02;;;7.70;;
77586;SDS011;66744;49.716;17.158;2023-02-28T02:10:43;17.88;;;9.25;;
77586;SDS011;66744;49.716;17.158;2023-02-28T02:17:33;17.92;;;8.35;;
77586;SDS011;66744;49.716;17.158;2023-02-28T02:37:13;20.88;;;9.02;;
77586;SDS011;66744;49.716;17.158;2023-02-28T02:40:36;14.90;;;7.35;;
77586;SDS011;66744;49.716;17.158;2023-02-28T02:46:51;13.43;;;8.00;;
77586;SDS011;66744;49.716;17.158;2023-02-28T02:49:56;16.67;;;7.68;;
77586;SDS011;66744;49.716;17.158;2023-02-28T02:53:02;16.98;;;7.40;;
77586;SDS011;66744;49.716;17.158;2023-02-28T02:56:08;16.05;;;7.57;;
77586;SDS011;66744;49.716;17.158;2023-02-28T02:59:11;12.30;;;6.78;;
77586;SDS011;66744;49.716;17.158;2023-02-28T03:02:15;16.10;;;7.53;;
77586;SDS011;66744;49.716;17.158;2023-02-28T03:05:19;18.60;;;8.82;;
77586;SDS011;66744;49.716;17.158;2023-02-28T03:08:26;13.02;;;7.57;;
77586;SDS011;66744;49.716;17.158;2023-02-28T03:11:30;17.13;;;8.38;;
77586;SDS011;66744;49.716;17.158;2023-02-28T03:20:59;15.52;;;8.65;;
77586;SDS011;66744;49.716;17.158;2023-02-28T03:27:09;13.93;;;7.38;;
77586;SDS011;66744;49.716;17.158;2023-02-28T03:30:20;18.85;;;9.77;;
77586;SDS011;66744;49.716;17.158;2023-02-28T03:33:34;16.77;;;7.75;;
77586;SDS011;66744;49.716;17.158;2023-02-28T03:36:41;14.93;;;7.80;;
77586;SDS011;66744;49.716;17.158;2023-02-28T03:39:53;20.45;;;8.52;;
77586;SDS011;66744;49.716;17.158;2023-02-28T03:43:01;15.40;;;8.50;;
77586;SDS011;66744;49.716;17.158;2023-02-28T03:46:07;13.77;;;7.53;;
77586;SDS011;66744;49.716;17.158;2023-02-28T03:49:13;14.10;;;8.25;;
77586;SDS011;66744;49.716;17.158;2023-02-28T03:52:21;18.70;;;9.05;;
77586;SDS011;66744;49.716;17.158;2023-02-28T03:55:32;15.25;;;8.63;;
77586;SDS011;66744;49.716;17.158;2023-02-28T04:01:41;19.70;;;8.45;;
77586;SDS011;66744;49.716;17.158;2023-02-28T04:04:44;16.77;;;8.35;;
77586;SDS011;66744;49.716;17.158;2023-02-28T04:07:49;14.98;;;7.45;;
77586;SDS011;66744;49.716;17.158;2023-02-28T04:13:58;17.23;;;7.60;;
77586;SDS011;66744;49.716;17.158;2023-02-28T04:16:59;13.98;;;8.30;;
77586;SDS011;66744;49.716;17.158;2023-02-28T04:20:01;18.48;;;8.95;;
77586;SDS011;66744;49.716;17.158;2023-02-28T04:23:09;16.73;;;8.95;;
77586;SDS011;66744;49.716;17.158;2023-02-28T04:29:13;25.67;;;8.73;;
77586;SDS011;66744;49.716;17.158;2023-02-28T04:32:22;17.13;;;8.48;;
77586;SDS011;66744;49.716;17.158;2023-02-28T04:35:23;15.85;;;8.55;;
77586;SDS011;66744;49.716;17.158;2023-02-28T04:41:25;19.67;;;8.30;;
77586;SDS011;66744;49.716;17.158;2023-02-28T04:47:28;20.08;;;9.80;;
77586;SDS011;66744;49.716;17.158;2023-02-28T04:50:29;16.58;;;8.68;;
77586;SDS011;66744;49.716;17.158;2023-02-28T04:53:31;19.23;;;10.90;;
77586;SDS011;66744;49.716;17.158;2023-02-28T04:56:32;19.95;;;9.27;;
77586;SDS011;66744;49.716;17.158;2023-02-28T04:59:33;18.58;;;9.82;;
77586;SDS011;66744;49.716;17.158;2023-02-28T05:02:35;17.52;;;9.00;;
77586;SDS011;66744;49.716;17.158;2023-02-28T05:05:36;18.23;;;8.63;;
77586;SDS011;66744;49.716;17.158;2023-02-28T05:08:38;16.83;;;9.13;;
77586;SDS011;66744;49.716;17.158;2023-02-28T05:11:39;17.92;;;9.00;;
77586;SDS011;66744;49.716;17.158;2023-02-28T05:14:41;16.27;;;8.30;;
77586;SDS011;66744;49.716;17.158;2023-02-28T05:17:43;16.05;;;8.90;;
77586;SDS011;66744;49.716;17.158;2023-02-28T05:20:44;20.65;;;10.43;;
77586;SDS011;66744;49.716;17.158;2023-02-28T05:23:45;19.38;;;8.90;;
77586;SDS011;66744;49.716;17.158;2023-02-28T05:26:47;21.38;;;10.18;;
77586;SDS011;66744;49.716;17.158;2023-02-28T05:29:48;21.58;;;9.82;;
77586;SDS011;66744;49.716;17.158;2023-02-28T05:32:50;22.42;;;10.90;;
77586;SDS011;66744;49.716;17.158;2023-02-28T05:35:52;16.55;;;8.73;;
77586;SDS011;66744;49.716;17.158;2023-02-28T05:38:53;19.13;;;9.93;;
77586;SDS011;66744;49.716;17.158;2023-02-28T05:41:54;19.15;;;10.07;;
77586;SDS011;66744;49.716;17.158;2023-02-28T05:44:55;21.50;;;10.60;;
77586;SDS011;66744;49.716;17.158;2023-02-28T05:47:57;19.48;;;10.32;;
77586;SDS011;66744;49.716;17.158;2023-02-28T05:50:58;19.05;;;9.93;;
77586;SDS011;66744;49.716;17.158;2023-02-28T05:54:00;16.35;;;8.30;;
77586;SDS011;66744;49.716;17.158;2023-02-28T05:57:02;17.55;;;9.65;;
77586;SDS011;66744;49.716;17.158;2023-02-28T06:00:04;20.23;;;8.90;;
77586;SDS011;66744;49.716;17.158;2023-02-28T06:03:13;21.85;;;11.23;;
77586;SDS011;66744;49.716;17.158;2023-02-28T06:06:14;21.70;;;11.18;;
77586;SDS011;66744;49.716;17.158;2023-02-28T06:09:15;19.02;;;10.23;;
77586;SDS011;66744;49.716;17.158;2023-02-28T06:12:17;15.23;;;8.13;;
77586;SDS011;66744;49.716;17.158;2023-02-28T06:15:19;18.35;;;9.18;;
77586;SDS011;66744;49.716;17.158;2023-02-28T06:18:21;17.45;;;9.13;;
77586;SDS011;66744;49.716;17.158;2023-02-28T06:21:23;20.13;;;8.93;;
77586;SDS011;66744;49.716;17.158;2023-02-28T06:24:25;19.05;;;9.05;;
77586;SDS011;66744;49.716;17.158;2023-02-28T06:27:29;20.85;;;8.88;;
77586;SDS011;66744;49.716;17.158;2023-02-28T06:30:31;21.30;;;10.45;;
77586;SDS011;66744;49.716;17.158;2023-02-28T06:33:37;17.15;;;9.68;;
77586;SDS011;66744;49.716;17.158;2023-02-28T06:36:39;19.92;;;9.60;;
77586;SDS011;66744;49.716;17.158;2023-02-28T06:39:42;17.58;;;9.90;;
77586;SDS011;66744;49.716;17.158;2023-02-28T06:45:44;19.08;;;9.20;;
77586;SDS011;66744;49.716;17.158;2023-02-28T06:51:47;25.45;;;12.18;;
77586;SDS011;66744;49.716;17.158;2023-02-28T06:54:49;29.42;;;13.38;;
77586;SDS011;66744;49.716;17.158;2023-02-28T06:58:01;26.48;;;12.65;;
77586;SDS011;66744;49.716;17.158;2023-02-28T07:01:02;22.58;;;11.00;;
77586;SDS011;66744;49.716;17.158;2023-02-28T07:04:04;20.58;;;10.85;;
77586;SDS011;66744;49.716;17.158;2023-02-28T07:07:06;24.75;;;12.05;;
77586;SDS011;66744;49.716;17.158;2023-02-28T07:13:09;21.30;;;10.07;;
77586;SDS011;66744;49.716;17.158;2023-02-28T07:16:11;24.35;;;12.15;;
77586;SDS011;66744;49.716;17.158;2023-02-28T07:19:12;21.00;;;10.82;;
77586;SDS011;66744;49.716;17.158;2023-02-28T07:25:14;18.73;;;9.88;;
77586;SDS011;66744;49.716;17.158;2023-02-28T07:28:17;18.60;;;11.15;;
77586;SDS011;66744;49.716;17.158;2023-02-28T07:31:19;20.33;;;11.15;;
77586;SDS011;66744;49.716;17.158;2023-02-28T07:34:20;22.60;;;11.93;;
77586;SDS011;66744;49.716;17.158;2023-02-28T07:37:22;21.63;;;11.43;;
77586;SDS011;66744;49.716;17.158;2023-02-28T07:43:24;28.60;;;14.73;;
77586;SDS011;66744;49.716;17.158;2023-02-28T07:49:27;22.52;;;13.38;;
77586;SDS011;66744;49.716;17.158;2023-02-28T07:52:28;18.58;;;11.30;;
77586;SDS011;66744;49.716;17.158;2023-02-28T07:58:30;19.95;;;11.85;;
77586;SDS011;66744;49.716;17.158;2023-02-28T08:01:32;21.55;;;11.93;;
77586;SDS011;66744;49.716;17.158;2023-02-28T08:04:33;23.92;;;12.45;;
77586;SDS011;66744;49.716;17.158;2023-02-28T08:10:36;17.67;;;10.73;;
77586;SDS011;66744;49.716;17.158;2023-02-28T08:13:37;20.33;;;10.57;;
77586;SDS011;66744;49.716;17.158;2023-02-28T08:19:39;16.90;;;9.32;;
77586;SDS011;66744;49.716;17.158;2023-02-28T08:25:42;18.17;;;9.98;;
77586;SDS011;66744;49.716;17.158;2023-02-28T08:28:44;19.75;;;10.30;;
77586;SDS011;66744;49.716;17.158;2023-02-28T08:31:45;24.58;;;11.77;;
77586;SDS011;66744;49.716;17.158;2023-02-28T08:34:47;17.95;;;11.38;;
77586;SDS011;66744;49.716;17.158;2023-02-28T08:37:48;16.60;;;8.60;;
77586;SDS011;66744;49.716;17.158;2023-02-28T08:40:50;20.95;;;10.60;;
77586;SDS011;66744;49.716;17.158;2023-02-28T08:43:58;14.05;;;8.57;;
77586;SDS011;66744;49.716;17.158;2023-02-28T08:47:02;16.35;;;9.25;;
77586;SDS011;66744;49.716;17.158;2023-02-28T08:50:07;14.20;;;7.82;;
77586;SDS011;66744;49.716;17.158;2023-02-28T08:53:09;13.32;;;7.28;;
77586;SDS011;66744;49.716;17.158;2023-02-28T08:59:15;13.75;;;7.65;;
77586;SDS011;66744;49.716;17.158;2023-02-28T09:02:16;11.43;;;7.78;;
77586;SDS011;66744;49.716;17.158;2023-02-28T09:05:17;17.13;;;9.05;;
77586;SDS011;66744;49.716;17.158;2023-02-28T09:08:19;15.88;;;9.45;;
77586;SDS011;66744;49.716;17.158;2023-02-28T09:11:20;15.55;;;8.23;;
77586;SDS011;66744;49.716;17.158;2023-02-28T09:14:21;13.60;;;8.65;;
77586;SDS011;66744;49.716;17.158;2023-02-28T09:20:24;15.77;;;8.50;;
77586;SDS011;66744;49.716;17.158;2023-02-28T09:23:25;14.60;;;8.63;;
77586;SDS011;66744;49.716;17.158;2023-02-28T09:26:34;14.07;;;8.50;;
77586;SDS011;66744;49.716;17.158;2023-02-28T09:29:36;13.68;;;7.75;;
77586;SDS011;66744;49.716;17.158;2023-02-28T09:32:37;14.10;;;7.45;;
77586;SDS011;66744;49.716;17.158;2023-02-28T09:36:12;12.68;;;8.00;;
77586;SDS011;66744;49.716;17.158;2023-02-28T09:42:39;14.80;;;8.43;;
77586;SDS011;66744;49.716;17.158;2023-02-28T09:45:42;13.60;;;8.73;;
77586;SDS011;66744;49.716;17.158;2023-02-28T09:48:49;14.43;;;8.20;;
77586;SDS011;66744;49.716;17.158;2023-02-28T09:52:05;13.45;;;8.38;;
77586;SDS011;66744;49.716;17.158;2023-02-28T09:58:51;14.73;;;8.00;;
77586;SDS011;66744;49.716;17.158;2023-02-28T10:05:08;14.48;;;7.93;;
77586;SDS011;66744;49.716;17.158;2023-02-28T10:11:44;13.48;;;8.65;;
77586;SDS011;66744;49.716;17.158;2023-02-28T10:14:47;14.32;;;9.63;;
77586;SDS011;66744;49.716;17.158;2023-02-28T10:17:54;15.18;;;8.00;;
77586;SDS011;66744;49.716;17.158;2023-02-28T10:20:59;12.23;;;7.63;;
77586;SDS011;66744;49.716;17.158;2023-02-28T10:24:14;13.43;;;7.70;;
77586;SDS011;66744;49.716;17.158;2023-02-28T10:27:30;16.92;;;10.57;;
77586;SDS011;66744;49.716;17.158;2023-02-28T10:30:32;15.27;;;9.15;;
77586;SDS011;66744;49.716;17.158;2023-02-28T10:33:34;15.88;;;8.98;;
77586;SDS011;66744;49.716;17.158;2023-02-28T10:36:36;15.27;;;8.52;;
77586;SDS011;66744;49.716;17.158;2023-02-28T10:39:44;16.35;;;9.35;;
77586;SDS011;66744;49.716;17.158;2023-02-28T10:43:07;18.48;;;12.90;;
77586;SDS011;66744;49.716;17.158;2023-02-28T10:46:15;16.20;;;9.63;;
77586;SDS011;66744;49.716;17.158;2023-02-28T10:49:26;14.77;;;9.27;;
77586;SDS011;66744;49.716;17.158;2023-02-28T10:52:39;23.05;;;10.30;;
77586;SDS011;66744;49.716;17.158;2023-02-28T10:55:41;14.38;;;8.18;;
77586;SDS011;66744;49.716;17.158;2023-02-28T10:59:02;17.10;;;8.98;;
77586;SDS011;66744;49.716;17.158;2023-02-28T11:02:30;14.32;;;8.95;;
77586;SDS011;66744;49.716;17.158;2023-02-28T11:05:34;15.82;;;8.02;;
77586;SDS011;66744;49.716;17.158;2023-02-28T11:08:43;12.07;;;8.40;;
77586;SDS011;66744;49.716;17.158;2023-02-28T11:12:19;13.20;;;9.35;;
77586;SDS011;66744;49.716;17.158;2023-02-28T11:15:30;12.32;;;8.07;;
77586;SDS011;66744;49.716;17.158;2023-02-28T11:22:21;15.57;;;9.05;;
77586;SDS011;66744;49.716;17.158;2023-02-28T11:25:25;16.95;;;8.88;;
77586;SDS011;66744;49.716;17.158;2023-02-28T11:28:30;15.20;;;8.05;;
77586;SDS011;66744;49.716;17.158;2023-02-28T11:31:32;15.82;;;8.75;;
77586;SDS011;66744;49.716;17.158;2023-02-28T11:34:34;25.08;;;10.13;;
77586;SDS011;66744;49.716;17.158;2023-02-28T11:37:37;14.18;;;8.10;;
77586;SDS011;66744;49.716;17.158;2023-02-28T11:40:53;11.98;;;7.15;;
77586;SDS011;66744;49.716;17.158;2023-02-28T11:44:13;10.93;;;7.50;;
77586;SDS011;66744;49.716;17.158;2023-02-28T11:51:28;14.07;;;8.35;;
77586;SDS011;66744;49.716;17.158;2023-02-28T11:58:04;12.38;;;7.85;;
77586;SDS011;66744;49.716;17.158;2023-02-28T12:08:01;15.02;;;7.72;;
77586;SDS011;66744;49.716;17.158;2023-02-28T12:15:11;14.77;;;9.27;;
77586;SDS011;66744;49.716;17.158;2023-02-28T12:18:56;15.88;;;9.10;;
77586;SDS011;66744;49.716;17.158;2023-02-28T12:28:42;17.23;;;8.93;;
77586;SDS011;66744;49.716;17.158;2023-02-28T12:31:54;14.63;;;7.68;;
77586;SDS011;66744;49.716;17.158;2023-02-28T12:38:12;13.10;;;8.15;;
77586;SDS011;66744;49.716;17.158;2023-02-28T12:41:28;13.50;;;8.32;;
77586;SDS011;66744;49.716;17.158;2023-02-28T12:44:52;16.45;;;9.43;;
77586;SDS011;66744;49.716;17.158;2023-02-28T12:47:59;12.15;;;7.45;;
77586;SDS011;66744;49.716;17.158;2023-02-28T12:51:04;11.65;;;7.75;;
77586;SDS011;66744;49.716;17.158;2023-02-28T12:57:48;12.73;;;7.07;;
77586;SDS011;66744;49.716;17.158;2023-02-28T13:04:32;10.52;;;6.57;;
77586;SDS011;66744;49.716;17.158;2023-02-28T13:11:02;15.73;;;8.60;;
77586;SDS011;66744;49.716;17.158;2023-02-28T13:14:06;14.23;;;7.32;;
77586;SDS011;66744;49.716;17.158;2023-02-28T13:17:20;10.43;;;7.18;;
77586;SDS011;66744;49.716;17.158;2023-02-28T13:23:41;14.07;;;7.75;;
77586;SDS011;66744;49.716;17.158;2023-02-28T13:36:47;11.85;;;7.78;;
77586;SDS011;66744;49.716;17.158;2023-02-28T13:39:50;15.60;;;8.82;;
77586;SDS011;66744;49.716;17.158;2023-02-28T13:42:54;15.15;;;8.77;;
77586;SDS011;66744;49.716;17.158;2023-02-28T13:46:09;18.55;;;7.85;;
77586;SDS011;66744;49.716;17.158;2023-02-28T13:52:26;16.13;;;8.90;;
77586;SDS011;66744;49.716;17.158;2023-02-28T13:59:15;16.17;;;8.57;;
77586;SDS011;66744;49.716;17.158;2023-02-28T14:02:31;15.02;;;8.93;;
77586;SDS011;66744;49.716;17.158;2023-02-28T14:05:44;18.25;;;9.82;;
77586;SDS011;66744;49.716;17.158;2023-02-28T14:08:59;16.98;;;9.73;;
77586;SDS011;66744;49.716;17.158;2023-02-28T14:18:57;16.27;;;8.63;;
77586;SDS011;66744;49.716;17.158;2023-02-28T14:32:51;16.92;;;8.90;;
77586;SDS011;66744;49.716;17.158;2023-02-28T14:39:24;16.95;;;8.40;;
77586;SDS011;66744;49.716;17.158;2023-02-28T14:45:29;16.02;;;8.68;;
77586;SDS011;66744;49.716;17.158;2023-02-28T14:48:32;12.98;;;8.30;;
77586;SDS011;66744;49.716;17.158;2023-02-28T14:54:40;14.85;;;9.07;;
77586;SDS011;66744;49.716;17.158;2023-02-28T14:57:54;15.20;;;9.82;;
77586;SDS011;66744;49.716;17.158;2023-02-28T15:00:58;16.70;;;9.95;;
77586;SDS011;66744;49.716;17.158;2023-02-28T15:04:05;17.05;;;8.55;;
77586;SDS011;66744;49.716;17.158;2023-02-28T15:07:13;18.42;;;10.20;;
77586;SDS011;66744;49.716;17.158;2023-02-28T15:10:19;16.17;;;9.63;;
77586;SDS011;66744;49.716;17.158;2023-02-28T15:13:25;17.23;;;9.02;;
77586;SDS011;66744;49.716;17.158;2023-02-28T15:16:36;18.55;;;9.60;;
77586;SDS011;66744;49.716;17.158;2023-02-28T15:19:41;21.92;;;10.68;;
77586;SDS011;66744;49.716;17.158;2023-02-28T15:22:52;17.60;;;10.50;;
77586;SDS011;66744;49.716;17.158;2023-02-28T15:25:57;21.17;;;11.27;;
77586;SDS011;66744;49.716;17.158;2023-02-28T15:29:07;19.70;;;10.35;;
77586;SDS011;66744;49.716;17.158;2023-02-28T15:32:32;18.83;;;11.20;;
77586;SDS011;66744;49.716;17.158;2023-02-28T15:35:35;21.70;;;11.43;;
77586;SDS011;66744;49.716;17.158;2023-02-28T15:38:36;25.92;;;13.25;;
77586;SDS011;66744;49.716;17.158;2023-02-28T15:41:38;22.35;;;13.20;;
77586;SDS011;66744;49.716;17.158;2023-02-28T15:47:40;25.80;;;12.60;;
77586;SDS011;66744;49.716;17.158;2023-02-28T15:50:47;26.48;;;15.05;;
77586;SDS011;66744;49.716;17.158;2023-02-28T15:57:20;26.98;;;14.55;;
77586;SDS011;66744;49.716;17.158;2023-02-28T16:00:25;30.75;;;14.43;;
77586;SDS011;66744;49.716;17.158;2023-02-28T16:03:34;23.70;;;14.65;;
77586;SDS011;66744;49.716;17.158;2023-02-28T16:06:42;22.52;;;12.15;;
77586;SDS011;66744;49.716;17.158;2023-02-28T16:09:45;25.10;;;13.25;;
77586;SDS011;66744;49.716;17.158;2023-02-28T16:12:47;23.08;;;13.32;;
77586;SDS011;66744;49.716;17.158;2023-02-28T16:15:50;25.00;;;13.65;;
77586;SDS011;66744;49.716;17.158;2023-02-28T16:18:52;24.83;;;12.35;;
77586;SDS011;66744;49.716;17.158;2023-02-28T16:21:53;21.25;;;12.65;;
77586;SDS011;66744;49.716;17.158;2023-02-28T16:27:56;20.95;;;11.98;;
77586;SDS011;66744;49.716;17.158;2023-02-28T16:31:01;26.45;;;12.13;;
77586;SDS011;66744;49.716;17.158;2023-02-28T16:34:04;23.33;;;12.68;;
77586;SDS011;66744;49.716;17.158;2023-02-28T16:37:16;22.80;;;12.85;;
77586;SDS011;66744;49.716;17.158;2023-02-28T16:40:19;22.05;;;12.00;;
77586;SDS011;66744;49.716;17.158;2023-02-28T16:43:23;22.48;;;12.52;;
77586;SDS011;66744;49.716;17.158;2023-02-28T16:46:28;23.27;;;11.88;;
77586;SDS011;66744;49.716;17.158;2023-02-28T16:49:33;21.83;;;12.32;;
77586;SDS011;66744;49.716;17.158;2023-02-28T16:55:36;31.77;;;16.35;;
77586;SDS011;66744;49.716;17.158;2023-02-28T16:58:38;34.58;;;18.20;;
77586;SDS011;66744;49.716;17.158;2023-02-28T17:04:40;60.80;;;30.10;;
77586;SDS011;66744;49.716;17.158;2023-02-28T17:07:41;36.78;;;19.25;;
77586;SDS011;66744;49.716;17.158;2023-02-28T17:10:43;31.13;;;15.07;;
77586;SDS011;66744;49.716;17.158;2023-02-28T17:13:44;33.17;;;18.08;;
77586;SDS011;66744;49.716;17.158;2023-02-28T17:16:46;27.75;;;17.48;;
77586;SDS011;66744;49.716;17.158;2023-02-28T17:19:47;44.92;;;17.45;;
77586;SDS011;66744;49.716;17.158;2023-02-28T17:25:50;37.00;;;18.92;;
77586;SDS011;66744;49.716;17.158;2023-02-28T17:28:55;40.22;;;20.77;;
77586;SDS011;66744;49.716;17.158;2023-02-28T17:31:57;30.80;;;16.50;;
77586;SDS011;66744;49.716;17.158;2023-02-28T17:37:59;37.60;;;18.63;;
77586;SDS011;66744;49.716;17.158;2023-02-28T17:41:01;32.80;;;15.45;;
77586;SDS011;66744;49.716;17.158;2023-02-28T17:47:04;28.42;;;15.35;;
77586;SDS011;66744;49.716;17.158;2023-02-28T17:53:07;24.92;;;14.20;;
77586;SDS011;66744;49.716;17.158;2023-02-28T17:56:12;24.20;;;13.60;;
77586;SDS011;66744;49.716;17.158;2023-02-28T17:59:19;30.35;;;14.05;;
77586;SDS011;66744;49.716;17.158;2023-02-28T18:05:21;24.17;;;12.10;;
77586;SDS011;66744;49.716;17.158;2023-02-28T18:11:25;23.90;;;13.65;;
77586;SDS011;66744;49.716;17.158;2023-02-28T18:14:27;25.17;;;13.45;;
77586;SDS011;66744;49.716;17.158;2023-02-28T18:20:29;23.85;;;12.32;;
77586;SDS011;66744;49.716;17.158;2023-02-28T18:23:31;26.35;;;14.35;;
77586;SDS011;66744;49.716;17.158;2023-02-28T18:26:32;25.27;;;12.35;;
77586;SDS011;66744;49.716;17.158;2023-02-28T18:29:33;25.00;;;12.65;;
77586;SDS011;66744;49.716;17.158;2023-02-28T18:32:35;22.98;;;10.95;;
77586;SDS011;66744;49.716;17.158;2023-02-28T18:35:37;24.98;;;12.15;;
77586;SDS011;66744;49.716;17.158;2023-02-28T18:38:39;23.83;;;12.90;;
77586;SDS011;66744;49.716;17.158;2023-02-28T18:41:42;22.25;;;11.20;;
77586;SDS011;66744;49.716;17.158;2023-02-28T18:44:43;21.65;;;11.75;;
77586;SDS011;66744;49.716;17.158;2023-02-28T18:47:44;22.65;;;13.07;;
77586;SDS011;66744;49.716;17.158;2023-02-28T18:50:46;22.38;;;11.82;;
77586;SDS011;66744;49.716;17.158;2023-02-28T18:53:48;28.35;;;12.05;;
77586;SDS011;66744;49.716;17.158;2023-02-28T18:56:49;28.15;;;12.18;;
77586;SDS011;66744;49.716;17.158;2023-02-28T18:59:51;24.90;;;13.25;;
77586;SDS011;66744;49.716;17.158;2023-02-28T19:05:57;23.33;;;12.93;;
77586;SDS011;66744;49.716;17.158;2023-02-28T19:09:01;20.33;;;9.95;;
77586;SDS011;66744;49.716;17.158;2023-02-28T19:12:06;20.75;;;11.63;;
77586;SDS011;66744;49.716;17.158;2023-02-28T19:15:07;22.02;;;11.20;;
77586;SDS011;66744;49.716;17.158;2023-02-28T19:18:10;21.80;;;11.85;;
77586;SDS011;66744;49.716;17.158;2023-02-28T19:24:14;19.95;;;11.18;;
77586;SDS011;66744;49.716;17.158;2023-02-28T19:27:16;25.27;;;13.50;;
77586;SDS011;66744;49.716;17.158;2023-02-28T19:30:20;23.38;;;13.55;;
77586;SDS011;66744;49.716;17.158;2023-02-28T19:33:22;26.08;;;14.05;;
77586;SDS011;66744;49.716;17.158;2023-02-28T19:36:24;33.65;;;15.70;;
77586;SDS011;66744;49.716;17.158;2023-02-28T19:42:26;27.90;;;14.65;;
77586;SDS011;66744;49.716;17.158;2023-02-28T19:45:33;23.88;;;12.20;;
77586;SDS011;66744;49.716;17.158;2023-02-28T19:48:35;22.95;;;12.10;;
77586;SDS011;66744;49.716;17.158;2023-02-28T19:51:36;26.98;;;12.43;;
77586;SDS011;66744;49.716;17.158;2023-02-28T19:54:38;21.42;;;13.13;;
77586;SDS011;66744;49.716;17.158;2023-02-28T19:57:39;20.65;;;11.10;;
77586;SDS011;66744;49.716;17.158;2023-02-28T20:00:41;23.95;;;11.60;;
77586;SDS011;66744;49.716;17.158;2023-02-28T20:03:43;23.20;;;11.75;;
77586;SDS011;66744;49.716;17.158;2023-02-28T20:06:48;23.10;;;13.10;;
77586;SDS011;66744;49.716;17.158;2023-02-28T20:09:52;18.08;;;10.75;;
77586;SDS011;66744;49.716;17.158;2023-02-28T20:15:57;20.73;;;11.55;;
77586;SDS011;66744;49.716;17.158;2023-02-28T20:18:59;20.45;;;10.80;;
77586;SDS011;66744;49.716;17.158;2023-02-28T20:22:02;23.23;;;12.23;;
77586;SDS011;66744;49.716;17.158;2023-02-28T20:25:05;18.85;;;10.75;;
77586;SDS011;66744;49.716;17.158;2023-02-28T20:28:08;24.40;;;12.77;;
77586;SDS011;66744;49.716;17.158;2023-02-28T20:31:14;23.17;;;13.13;;
77586;SDS011;66744;49.716;17.158;2023-02-28T20:34:17;25.20;;;12.00;;
77586;SDS011;66744;49.716;17.158;2023-02-28T20:37:19;25.85;;;12.68;;
77586;SDS011;66744;49.716;17.158;2023-02-28T20:40:21;27.90;;;13.38;;
77586;SDS011;66744;49.716;17.158;2023-02-28T20:46:24;24.00;;;11.95;;
77586;SDS011;66744;49.716;17.158;2023-02-28T20:49:26;24.58;;;13.57;;
77586;SDS011;66744;49.716;17.158;2023-02-28T20:52:27;27.05;;;13.00;;
77586;SDS011;66744;49.716;17.158;2023-02-28T20:55:28;23.17;;;12.65;;
77586;SDS011;66744;49.716;17.158;2023-02-28T21:01:33;22.73;;;12.75;;
77586;SDS011;66744;49.716;17.158;2023-02-28T21:04:34;23.70;;;11.95;;
77586;SDS011;66744;49.716;17.158;2023-02-28T21:10:37;19.75;;;11.70;;
77586;SDS011;66744;49.716;17.158;2023-02-28T21:13:39;23.80;;;11.60;;
77586;SDS011;66744;49.716;17.158;2023-02-28T21:16:42;26.45;;;12.32;;
77586;SDS011;66744;49.716;17.158;2023-02-28T21:19:44;25.90;;;12.77;;
77586;SDS011;66744;49.716;17.158;2023-02-28T21:22:46;24.85;;;12.82;;
77586;SDS011;66744;49.716;17.158;2023-02-28T21:25:48;27.15;;;12.82;;
77586;SDS011;66744;49.716;17.158;2023-02-28T21:31:53;25.48;;;11.85;;
77586;SDS011;66744;49.716;17.158;2023-02-28T21:34:55;23.30;;;11.82;;
77586;SDS011;66744;49.716;17.158;2023-02-28T21:41:07;25.48;;;11.52;;
77586;SDS011;66744;49.716;17.158;2023-02-28T21:44:11;20.48;;;11.00;;
77586;SDS011;66744;49.716;17.158;2023-02-28T21:47:19;23.10;;;12.18;;
77586;SDS011;66744;49.716;17.158;2023-02-28T21:53:21;19.85;;;11.48;;
77586;SDS011;66744;49.716;17.158;2023-02-28T21:56:23;25.70;;;12.32;;
77586;SDS011;66744;49.716;17.158;2023-02-28T21:59:26;22.08;;;11.23;;
77586;SDS011;66744;49.716;17.158;2023-02-28T22:02:27;22.83;;;12.88;;
77586;SDS011;66744;49.716;17.158;2023-02-28T22:05:28;22.45;;;11.55;;
77586;SDS011;66744;49.716;17.158;2023-02-28T22:11:31;23.90;;;11.20;;
77586;SDS011;66744;49.716;17.158;2023-02-28T22:14:33;21.30;;;11.32;;
77586;SDS011;66744;49.716;17.158;2023-02-28T22:17:34;21.20;;;11.20;;